createdAt,value
2017-08-17T00:00:20.758Z,1018.56
2017-08-17T00:01:20.792Z,1018.56
2017-08-17T00:02:20.826Z,1018.55
2017-08-17T00:03:20.899Z,1018.55
2017-08-17T00:04:20.926Z,1018.57
2017-08-17T00:05:20.929Z,1018.51
2017-08-17T00:06:20.962Z,1018.53
2017-08-17T00:07:20.995Z,1018.48
2017-08-17T00:08:21.062Z,1018.52
2017-08-17T00:09:21.100Z,1018.47
2017-08-17T00:10:21.494Z,1018.46
2017-08-17T00:11:21.493Z,1018.43
2017-08-17T00:12:21.524Z,1018.45
2017-08-17T00:13:21.817Z,1018.45
2017-08-17T00:14:21.849Z,1018.46
2017-08-17T00:15:21.881Z,1018.45
2017-08-17T00:16:21.913Z,1018.45
2017-08-17T00:17:21.947Z,1018.4
2017-08-17T00:18:22.004Z,1018.44
2017-08-17T00:19:22.014Z,1018.4
2017-08-17T00:20:22.307Z,1018.47
2017-08-17T00:21:22.082Z,1018.47
2017-08-17T00:22:22.137Z,1018.5
2017-08-17T00:23:22.416Z,1018.53
2017-08-17T00:24:22.192Z,1018.52
2017-08-17T00:25:22.242Z,1018.5
2017-08-17T00:26:22.572Z,1018.55
2017-08-17T00:27:22.603Z,1018.54
2017-08-17T00:28:22.635Z,1018.55
2017-08-17T00:29:22.670Z,1018.59
2017-08-17T00:30:22.708Z,1018.59
2017-08-17T00:31:22.735Z,1018.6
2017-08-17T00:32:22.770Z,1018.58
2017-08-17T00:33:22.804Z,1018.56
2017-08-17T00:34:22.839Z,1018.57
2017-08-17T00:36:52.470Z,1018.57
2017-08-17T00:37:52.794Z,1018.56
2017-08-17T00:38:52.825Z,1018.52
2017-08-17T00:39:53.254Z,1018.55
2017-08-17T00:40:53.588Z,1018.51
2017-08-17T00:41:53.618Z,1018.56
2017-08-17T00:42:53.647Z,1018.57
2017-08-17T00:43:54.000Z,1018.55
2017-08-17T00:44:54.061Z,1018.56
2017-08-17T00:45:54.065Z,1018.53
2017-08-17T00:46:54.402Z,1018.57
2017-08-17T00:47:54.440Z,1018.53
2017-08-17T00:48:54.467Z,1018.57
2017-08-17T00:49:54.503Z,1018.52
2017-08-17T00:50:54.535Z,1018.54
2017-08-17T00:51:54.570Z,1018.55
2017-08-17T00:52:54.608Z,1018.47
2017-08-17T00:53:54.954Z,1018.44
2017-08-17T00:54:54.999Z,1018.53
2017-08-17T00:55:55.030Z,1018.5
2017-08-17T00:56:55.053Z,1018.48
2017-08-17T00:57:55.437Z,1018.49
2017-08-17T00:58:55.463Z,1018.47
2017-08-17T00:59:55.538Z,1018.48
2017-08-17T01:00:55.529Z,1018.44
2017-08-17T01:01:55.877Z,1018.47
2017-08-17T01:02:55.910Z,1018.45
2017-08-17T01:03:55.943Z,1018.47
2017-08-17T01:04:55.976Z,1018.45
2017-08-17T01:05:56.031Z,1018.44
2017-08-17T01:06:56.052Z,1018.43
2017-08-17T01:07:56.081Z,1018.4
2017-08-17T01:08:56.113Z,1018.44
2017-08-17T01:09:56.149Z,1018.44
2017-08-17T01:10:56.181Z,1018.37
2017-08-17T01:11:56.215Z,1018.43
2017-08-17T01:12:56.248Z,1018.42
2017-08-17T01:13:56.281Z,1018.4
2017-08-17T01:14:56.342Z,1018.41
2017-08-17T01:15:56.353Z,1018.36
2017-08-17T01:16:56.383Z,1018.4
2017-08-17T01:17:56.419Z,1018.41
2017-08-17T01:18:56.449Z,1018.4
2017-08-17T01:19:56.483Z,1018.41
2017-08-17T01:20:56.522Z,1018.39
2017-08-17T01:21:56.555Z,1018.39
2017-08-17T01:22:56.587Z,1018.41
2017-08-17T01:23:56.619Z,1018.42
2017-08-17T01:24:56.655Z,1018.46
2017-08-17T01:25:56.689Z,1018.4
2017-08-17T01:26:56.719Z,1018.44
2017-08-17T01:27:56.755Z,1018.42
2017-08-17T01:28:56.810Z,1018.34
2017-08-17T01:29:57.145Z,1018.36
2017-08-17T01:30:57.154Z,1018.3
2017-08-17T01:31:57.188Z,1018.37
2017-08-17T01:32:57.223Z,1018.32
2017-08-17T01:33:57.257Z,1018.32
2017-08-17T01:34:57.293Z,1018.3
2017-08-17T01:35:57.324Z,1018.3
2017-08-17T01:36:57.360Z,1018.32
2017-08-17T01:37:57.393Z,1018.29
2017-08-17T01:38:57.438Z,1018.24
2017-08-17T01:39:57.865Z,1018.25
2017-08-17T01:40:58.291Z,1018.27
2017-08-17T01:41:58.317Z,1018.21
2017-08-17T01:42:58.350Z,1018.22
2017-08-17T01:43:58.387Z,1018.22
2017-08-17T01:44:58.417Z,1018.21
2017-08-17T01:45:58.456Z,1018.19
2017-08-17T01:46:58.853Z,1018.26
2017-08-17T01:47:58.906Z,1018.26
2017-08-17T01:48:59.306Z,1018.24
2017-08-17T01:49:59.365Z,1018.22
2017-08-17T01:50:59.681Z,1018.24
2017-08-17T01:51:59.713Z,1018.26
2017-08-17T01:52:59.745Z,1018.25
2017-08-17T01:54:00.108Z,1018.25
2017-08-17T01:55:00.114Z,1018.17
2017-08-17T01:56:00.151Z,1018.22
2017-08-17T01:57:00.188Z,1018.17
2017-08-17T01:58:00.241Z,1018.2
2017-08-17T01:59:00.254Z,1018.19
2017-08-17T02:00:00.290Z,1018.14
2017-08-17T02:01:00.320Z,1018.11
2017-08-17T02:02:00.360Z,1018.1
2017-08-17T02:03:00.761Z,1018.05
2017-08-17T02:04:00.794Z,1018.14
2017-08-17T02:05:01.303Z,1018.11
2017-08-17T02:06:01.336Z,1018.11
2017-08-17T02:07:01.369Z,1018.12
2017-08-17T02:08:01.398Z,1018.09
2017-08-17T02:09:01.435Z,1018.11
2017-08-17T02:10:01.467Z,1018.1
2017-08-17T02:11:01.506Z,1018.01
2017-08-17T02:12:01.556Z,1018
2017-08-17T02:13:01.634Z,1017.98
2017-08-17T02:14:01.668Z,1018.02
2017-08-17T02:15:01.703Z,1018
2017-08-17T02:16:01.740Z,1017.99
2017-08-17T02:17:01.768Z,1017.94
2017-08-17T02:18:01.804Z,1017.97
2017-08-17T02:19:01.833Z,1017.97
2017-08-17T02:20:02.123Z,1017.9
2017-08-17T02:21:02.523Z,1017.88
2017-08-17T02:22:02.556Z,1017.91
2017-08-17T02:23:02.592Z,1017.87
2017-08-17T02:24:02.620Z,1017.86
2017-08-17T02:25:02.656Z,1017.83
2017-08-17T02:26:02.691Z,1017.85
2017-08-17T02:27:02.721Z,1017.79
2017-08-17T02:28:02.755Z,1017.87
2017-08-17T02:29:02.793Z,1017.84
2017-08-17T02:30:02.825Z,1017.83
2017-08-17T02:31:03.175Z,1017.78
2017-08-17T02:32:03.206Z,1017.8
2017-08-17T02:33:03.239Z,1017.72
2017-08-17T02:34:03.274Z,1017.73
2017-08-17T02:35:03.432Z,1017.71
2017-08-17T02:36:03.374Z,1017.73
2017-08-17T02:37:03.375Z,1017.72
2017-08-17T02:38:03.702Z,1017.68
2017-08-17T02:39:03.734Z,1017.75
2017-08-17T02:40:03.820Z,1017.77
2017-08-17T02:41:03.796Z,1017.78
2017-08-17T02:42:04.231Z,1017.73
2017-08-17T02:43:04.265Z,1017.76
2017-08-17T02:44:04.306Z,1017.73
2017-08-17T02:45:04.717Z,1017.76
2017-08-17T02:46:04.747Z,1017.79
2017-08-17T02:47:04.781Z,1017.78
2017-08-17T02:48:04.819Z,1017.77
2017-08-17T02:49:05.187Z,1017.81
2017-08-17T02:50:05.538Z,1017.77
2017-08-17T02:51:05.572Z,1017.82
2017-08-17T02:52:05.605Z,1017.82
2017-08-17T02:53:05.637Z,1017.82
2017-08-17T02:54:05.670Z,1017.8
2017-08-17T02:55:06.009Z,1017.81
2017-08-17T02:56:06.049Z,1017.87
2017-08-17T02:57:06.079Z,1017.84
2017-08-17T02:58:06.115Z,1017.86
2017-08-17T02:59:06.149Z,1017.85
2017-08-17T03:00:06.496Z,1017.89
2017-08-17T03:01:06.527Z,1017.91
2017-08-17T03:02:06.922Z,1017.92
2017-08-17T03:03:06.992Z,1017.95
2017-08-17T03:04:07.024Z,1017.96
2017-08-17T03:05:07.342Z,1017.96
2017-08-17T03:06:07.673Z,1017.95
2017-08-17T03:07:07.709Z,1017.96
2017-08-17T03:08:07.747Z,1018
2017-08-17T03:09:07.767Z,1018
2017-08-17T03:10:08.074Z,1018.04
2017-08-17T03:11:08.110Z,1018.04
2017-08-17T03:12:08.142Z,1018.02
2017-08-17T03:13:08.176Z,1018.04
2017-08-17T03:14:08.210Z,1018.05
2017-08-17T03:15:08.245Z,1018.01
2017-08-17T03:16:08.280Z,1018.02
2017-08-17T03:17:08.312Z,1017.99
2017-08-17T03:18:08.343Z,1018.03
2017-08-17T03:19:08.376Z,1018
2017-08-17T03:20:08.411Z,1017.99
2017-08-17T03:21:08.446Z,1018.01
2017-08-17T03:22:08.473Z,1017.94
2017-08-17T03:23:08.511Z,1017.97
2017-08-17T03:24:08.545Z,1018.02
2017-08-17T03:25:08.577Z,1018.01
2017-08-17T03:26:08.613Z,1018.02
2017-08-17T03:27:08.645Z,1018.09
2017-08-17T03:28:08.998Z,1018.06
2017-08-17T03:29:09.409Z,1018.08
2017-08-17T03:30:09.460Z,1018.05
2017-08-17T03:31:09.469Z,1018.06
2017-08-17T03:32:09.504Z,1018.03
2017-08-17T03:33:09.550Z,1018.03
2017-08-17T03:34:09.582Z,1018.03
2017-08-17T03:35:09.616Z,1018
2017-08-17T03:36:09.649Z,1018
2017-08-17T03:37:10.057Z,1017.98
2017-08-17T03:38:10.090Z,1017.99
2017-08-17T03:39:10.120Z,1017.97
2017-08-17T03:40:10.154Z,1018.05
2017-08-17T03:41:10.189Z,1018
2017-08-17T03:42:10.222Z,1018
2017-08-17T03:43:10.277Z,1018.04
2017-08-17T03:44:10.288Z,1018.01
2017-08-17T03:45:10.320Z,1017.96
2017-08-17T03:46:10.641Z,1018.01
2017-08-17T03:47:10.671Z,1018.01
2017-08-17T03:48:10.714Z,1018.01
2017-08-17T03:49:10.737Z,1018.04
2017-08-17T03:50:11.059Z,1018.07
2017-08-17T03:51:11.093Z,1018.02
2017-08-17T03:52:11.124Z,1018.06
2017-08-17T03:53:11.158Z,1018.05
2017-08-17T03:54:11.191Z,1018.03
2017-08-17T03:55:11.226Z,1018.08
2017-08-17T03:56:11.255Z,1018.08
2017-08-17T03:57:11.296Z,1018.05
2017-08-17T03:58:11.325Z,1018.03
2017-08-17T03:59:11.664Z,1018
2017-08-17T04:00:24.720Z,1017.98
2017-08-17T04:01:24.749Z,1017.98
2017-08-17T04:02:24.785Z,1017.93
2017-08-17T04:03:24.816Z,1018.01
2017-08-17T04:04:24.843Z,1018
2017-08-17T04:05:24.891Z,1018.02
2017-08-17T04:06:24.919Z,1018.03
2017-08-17T04:07:24.949Z,1018
2017-08-17T04:08:25.278Z,1017.97
2017-08-17T04:09:25.312Z,1017.94
2017-08-17T04:10:25.346Z,1017.9
2017-08-17T04:11:25.378Z,1017.94
2017-08-17T04:12:25.413Z,1017.85
2017-08-17T04:13:25.444Z,1017.86
2017-08-17T04:14:25.479Z,1017.9
2017-08-17T04:15:25.515Z,1017.94
2017-08-17T04:16:25.545Z,1017.92
2017-08-17T04:17:25.579Z,1017.91
2017-08-17T04:18:25.620Z,1017.89
2017-08-17T04:19:25.723Z,1017.88
2017-08-17T04:20:26.062Z,1017.87
2017-08-17T04:21:26.090Z,1017.88
2017-08-17T04:22:26.125Z,1017.88
2017-08-17T04:23:26.159Z,1017.93
2017-08-17T04:24:26.214Z,1017.82
2017-08-17T04:25:26.248Z,1017.83
2017-08-17T04:26:26.278Z,1017.78
2017-08-17T04:27:26.316Z,1017.78
2017-08-17T04:28:26.658Z,1017.74
2017-08-17T04:29:26.691Z,1017.75
2017-08-17T04:30:26.725Z,1017.7
2017-08-17T04:31:26.757Z,1017.76
2017-08-17T04:32:26.846Z,1017.73
2017-08-17T04:33:27.197Z,1017.73
2017-08-17T04:34:27.226Z,1017.66
2017-08-17T04:35:27.258Z,1017.68
2017-08-17T04:36:27.294Z,1017.66
2017-08-17T04:37:27.324Z,1017.63
2017-08-17T04:38:27.651Z,1017.63
2017-08-17T04:39:27.990Z,1017.6
2017-08-17T04:40:28.023Z,1017.59
2017-08-17T04:41:28.054Z,1017.59
2017-08-17T04:42:28.088Z,1017.59
2017-08-17T04:43:28.121Z,1017.58
2017-08-17T04:44:28.157Z,1017.6
2017-08-17T04:45:28.286Z,1017.6
2017-08-17T04:46:28.221Z,1017.59
2017-08-17T04:47:28.254Z,1017.63
2017-08-17T04:48:28.287Z,1017.61
2017-08-17T04:49:28.321Z,1017.65
2017-08-17T04:50:28.360Z,1017.65
2017-08-17T04:51:28.669Z,1017.64
2017-08-17T04:52:28.990Z,1017.64
2017-08-17T04:53:29.025Z,1017.62
2017-08-17T04:54:29.057Z,1017.63
2017-08-17T04:55:29.090Z,1017.64
2017-08-17T04:56:29.425Z,1017.63
2017-08-17T04:57:29.456Z,1017.6
2017-08-17T04:58:29.489Z,1017.6
2017-08-17T04:59:29.814Z,1017.7
2017-08-17T05:00:29.896Z,1017.72
2017-08-17T05:01:29.879Z,1017.76
2017-08-17T05:02:29.916Z,1017.78
2017-08-17T05:03:29.946Z,1017.78
2017-08-17T05:04:29.985Z,1017.84
2017-08-17T05:05:30.017Z,1017.81
2017-08-17T05:06:30.047Z,1017.83
2017-08-17T05:07:30.105Z,1017.81
2017-08-17T05:08:30.117Z,1017.81
2017-08-17T05:09:30.149Z,1017.8
2017-08-17T05:10:30.464Z,1017.81
2017-08-17T05:11:30.499Z,1017.85
2017-08-17T05:12:30.554Z,1017.83
2017-08-17T05:13:30.569Z,1017.87
2017-08-17T05:14:30.602Z,1017.9
2017-08-17T05:15:30.934Z,1017.87
2017-08-17T05:16:30.969Z,1017.92
2017-08-17T05:17:31.002Z,1017.95
2017-08-17T05:18:31.311Z,1017.93
2017-08-17T05:19:31.360Z,1017.91
2017-08-17T05:20:31.379Z,1017.86
2017-08-17T05:21:31.415Z,1017.85
2017-08-17T05:22:31.825Z,1017.82
2017-08-17T05:23:31.854Z,1017.8
2017-08-17T05:24:31.887Z,1017.81
2017-08-17T05:25:31.926Z,1017.78
2017-08-17T05:26:31.973Z,1017.78
2017-08-17T05:27:31.991Z,1017.78
2017-08-17T05:28:32.027Z,1017.73
2017-08-17T05:29:32.343Z,1017.8
2017-08-17T05:30:32.095Z,1017.83
2017-08-17T05:31:32.132Z,1017.83
2017-08-17T05:32:32.163Z,1017.82
2017-08-17T05:33:32.220Z,1017.87
2017-08-17T05:34:32.234Z,1017.89
2017-08-17T05:35:32.270Z,1017.89
2017-08-17T05:36:32.324Z,1017.86
2017-08-17T05:37:32.335Z,1017.8
2017-08-17T05:38:32.372Z,1017.84
2017-08-17T05:39:32.415Z,1017.78
2017-08-17T05:40:32.444Z,1017.79
2017-08-17T05:41:32.793Z,1017.86
2017-08-17T05:42:33.105Z,1017.8
2017-08-17T05:43:33.145Z,1017.85
2017-08-17T05:44:33.175Z,1017.82
2017-08-17T05:45:33.242Z,1017.78
2017-08-17T05:46:33.269Z,1017.84
2017-08-17T05:47:33.282Z,1017.82
2017-08-17T05:48:33.321Z,1017.78
2017-08-17T05:49:33.355Z,1017.78
2017-08-17T05:50:33.388Z,1017.81
2017-08-17T05:51:33.428Z,1017.77
2017-08-17T05:52:33.467Z,1017.79
2017-08-17T05:53:33.767Z,1017.83
2017-08-17T05:54:33.798Z,1017.82
2017-08-17T05:55:34.109Z,1017.79
2017-08-17T05:56:34.143Z,1017.75
2017-08-17T05:57:34.794Z,1017.78
2017-08-17T05:58:34.580Z,1017.75
2017-08-17T05:59:34.618Z,1017.79
2017-08-17T06:00:35.066Z,1017.77
2017-08-17T06:01:35.010Z,1017.78
2017-08-17T06:02:35.154Z,1017.77
2017-08-17T06:03:35.086Z,1017.74
2017-08-17T06:04:35.124Z,1017.69
2017-08-17T06:05:35.156Z,1017.78
2017-08-17T06:06:35.196Z,1017.77
2017-08-17T06:07:35.233Z,1017.78
2017-08-17T06:08:35.265Z,1017.77
2017-08-17T06:09:35.301Z,1017.8
2017-08-17T06:10:35.342Z,1017.78
2017-08-17T06:11:35.373Z,1017.79
2017-08-17T06:12:35.409Z,1017.78
2017-08-17T06:13:35.452Z,1017.86
2017-08-17T06:14:35.488Z,1017.84
2017-08-17T06:15:35.806Z,1017.87
2017-08-17T06:16:35.861Z,1017.88
2017-08-17T06:17:35.880Z,1017.9
2017-08-17T06:18:35.973Z,1017.9
2017-08-17T06:19:35.947Z,1017.88
2017-08-17T06:20:35.987Z,1017.9
2017-08-17T06:21:36.020Z,1017.86
2017-08-17T06:22:36.058Z,1017.91
2017-08-17T06:23:36.092Z,1017.97
2017-08-17T06:24:36.139Z,1017.94
2017-08-17T06:25:36.178Z,1017.97
2017-08-17T06:26:36.503Z,1017.97
2017-08-17T06:27:36.546Z,1017.98
2017-08-17T06:28:36.583Z,1017.96
2017-08-17T06:29:36.619Z,1017.96
2017-08-17T06:30:36.656Z,1017.98
2017-08-17T06:31:36.690Z,1017.94
2017-08-17T06:32:36.986Z,1017.98
2017-08-17T06:33:37.025Z,1017.94
2017-08-17T06:34:37.135Z,1017.87
2017-08-17T06:35:37.166Z,1017.88
2017-08-17T06:36:37.452Z,1017.93
2017-08-17T06:37:37.485Z,1017.98
2017-08-17T06:38:37.523Z,1017.92
2017-08-17T06:39:37.567Z,1017.93
2017-08-17T06:40:37.603Z,1017.94
2017-08-17T06:41:37.643Z,1017.97
2017-08-17T06:42:37.682Z,1017.96
2017-08-17T06:43:37.721Z,1017.97
2017-08-17T06:44:37.762Z,1017.94
2017-08-17T06:45:37.826Z,1017.94
2017-08-17T06:46:37.863Z,1017.98
2017-08-17T06:47:37.900Z,1017.93
2017-08-17T06:48:37.964Z,1017.97
2017-08-17T06:49:37.980Z,1018
2017-08-17T06:50:38.101Z,1018
2017-08-17T06:51:38.066Z,1017.97
2017-08-17T06:52:38.101Z,1018.05
2017-08-17T06:53:38.142Z,1018.12
2017-08-17T06:54:38.182Z,1018.2
2017-08-17T06:55:38.224Z,1018.16
2017-08-17T06:56:38.264Z,1018.2
2017-08-17T06:57:38.582Z,1018.2
2017-08-17T06:58:38.622Z,1018.16
2017-08-17T06:59:38.660Z,1018.18
2017-08-17T07:00:41.648Z,1018.12
2017-08-17T07:01:38.753Z,1018.05
2017-08-17T07:02:38.785Z,1018.05
2017-08-17T07:03:38.835Z,1018
2017-08-17T07:04:38.867Z,1017.96
2017-08-17T07:05:38.912Z,1017.95
2017-08-17T07:06:38.952Z,1017.91
2017-08-17T07:07:39.305Z,1017.8
2017-08-17T07:08:39.347Z,1017.77
2017-08-17T07:09:39.389Z,1017.74
2017-08-17T07:10:39.431Z,1017.74
2017-08-17T07:11:39.471Z,1017.7
2017-08-17T07:12:39.513Z,1017.71
2017-08-17T07:13:39.555Z,1017.73
2017-08-17T07:14:39.595Z,1017.72
2017-08-17T07:15:39.636Z,1017.7
2017-08-17T07:16:39.678Z,1017.65
2017-08-17T07:17:39.721Z,1017.66
2017-08-17T07:18:39.767Z,1017.67
2017-08-17T07:19:39.810Z,1017.64
2017-08-17T07:20:40.305Z,1017.63
2017-08-17T07:21:40.650Z,1017.66
2017-08-17T07:22:40.988Z,1017.66
2017-08-17T07:23:41.030Z,1017.6
2017-08-17T07:24:41.072Z,1017.59
2017-08-17T07:25:41.111Z,1017.57
2017-08-17T07:26:41.496Z,1017.53
2017-08-17T07:27:41.538Z,1017.54
2017-08-17T07:28:41.673Z,1017.52
2017-08-17T07:29:41.620Z,1017.48
2017-08-17T07:30:41.666Z,1017.53
2017-08-17T07:31:41.710Z,1017.46
2017-08-17T07:32:41.753Z,1017.48
2017-08-17T07:33:41.836Z,1017.56
2017-08-17T07:34:41.835Z,1017.49
2017-08-17T07:35:41.880Z,1017.5
2017-08-17T07:36:41.921Z,1017.47
2017-08-17T07:37:42.247Z,1017.47
2017-08-17T07:38:42.282Z,1017.52
2017-08-17T07:39:42.802Z,1017.52
2017-08-17T07:40:43.174Z,1017.55
2017-08-17T07:41:43.573Z,1017.55
2017-08-17T07:42:43.592Z,1017.57
2017-08-17T07:43:43.631Z,1017.58
2017-08-17T07:44:43.676Z,1017.56
2017-08-17T07:45:43.718Z,1017.58
2017-08-17T07:46:43.764Z,1017.51
2017-08-17T07:47:43.805Z,1017.47
2017-08-17T07:48:43.848Z,1017.49
2017-08-17T07:49:44.009Z,1017.49
2017-08-17T07:50:43.940Z,1017.48
2017-08-17T07:51:43.980Z,1017.5
2017-08-17T07:52:44.311Z,1017.44
2017-08-17T07:53:44.355Z,1017.49
2017-08-17T07:54:44.399Z,1017.42
2017-08-17T07:55:44.441Z,1017.43
2017-08-17T07:56:44.484Z,1017.45
2017-08-17T07:57:44.536Z,1017.41
2017-08-17T07:58:44.573Z,1017.46
2017-08-17T07:59:44.616Z,1017.47
2017-08-17T08:00:52.143Z,1017.45
2017-08-17T08:01:51.820Z,1017.47
2017-08-17T08:02:51.865Z,1017.38
2017-08-17T08:03:51.909Z,1017.41
2017-08-17T08:04:51.952Z,1017.4
2017-08-17T08:05:51.996Z,1017.29
2017-08-17T08:06:52.042Z,1017.36
2017-08-17T08:07:52.093Z,1017.28
2017-08-17T08:08:52.134Z,1017.33
2017-08-17T08:09:52.282Z,1017.35
2017-08-17T08:10:53.039Z,1017.31
2017-08-17T08:11:52.781Z,1017.31
2017-08-17T08:12:52.828Z,1017.32
2017-08-17T08:13:52.892Z,1017.33
2017-08-17T08:14:53.032Z,1017.37
2017-08-17T08:15:53.059Z,1017.38
2017-08-17T08:16:53.095Z,1017.37
2017-08-17T08:17:53.143Z,1017.4
2017-08-17T08:18:53.191Z,1017.45
2017-08-17T08:19:53.235Z,1017.42
2017-08-17T08:20:53.282Z,1017.41
2017-08-17T08:21:53.324Z,1017.19
2017-08-17T08:22:53.391Z,1017.44
2017-08-17T08:23:53.739Z,1017.53
2017-08-17T08:24:53.786Z,1017.06
2017-08-17T08:25:53.832Z,1017.62
2017-08-17T08:26:53.888Z,1017.59
2017-08-17T08:27:54.291Z,1017.15
2017-08-17T08:28:54.335Z,1017.44
2017-08-17T08:29:54.382Z,1017.62
2017-08-17T08:30:54.743Z,1017.66
2017-08-17T08:31:54.838Z,1017.69
2017-08-17T08:32:54.883Z,1017.68
2017-08-17T08:33:54.927Z,1017.7
2017-08-17T08:34:54.973Z,1017.73
2017-08-17T08:35:55.017Z,1017.69
2017-08-17T08:36:55.060Z,1017.68
2017-08-17T08:37:55.106Z,1017.67
2017-08-17T08:38:55.151Z,1017.63
2017-08-17T08:39:55.297Z,1017.57
2017-08-17T08:40:55.245Z,1017.64
2017-08-17T08:41:55.556Z,1017.66
2017-08-17T08:42:55.333Z,1017.64
2017-08-17T08:43:55.380Z,1017.64
2017-08-17T08:44:55.446Z,1017.67
2017-08-17T08:45:55.474Z,1017.66
2017-08-17T08:46:55.516Z,1017.66
2017-08-17T08:47:55.561Z,1017.62
2017-08-17T08:48:55.892Z,1017.51
2017-08-17T08:49:55.935Z,1017.56
2017-08-17T08:50:55.989Z,1017.59
2017-08-17T08:51:56.035Z,1017.24
2017-08-17T08:52:56.365Z,1017.39
2017-08-17T08:53:56.408Z,1017.38
2017-08-17T08:54:56.713Z,1017.51
2017-08-17T08:55:56.502Z,1017.51
2017-08-17T08:56:56.546Z,1017.43
2017-08-17T08:57:56.596Z,1017.48
2017-08-17T08:58:56.636Z,1017.3
2017-08-17T08:59:56.688Z,1017.48
2017-08-17T09:01:00.987Z,1017.43
2017-08-17T09:01:56.774Z,1017.43
2017-08-17T09:02:56.824Z,1017.4
2017-08-17T09:03:56.870Z,1017.36
2017-08-17T09:04:56.914Z,1016.74
2017-08-17T09:05:56.960Z,1017.33
2017-08-17T09:06:57.007Z,1017.25
2017-08-17T09:07:57.353Z,1017.28
2017-08-17T09:08:57.402Z,1017.25
2017-08-17T09:09:57.447Z,1017.03
2017-08-17T09:10:57.539Z,1017.28
2017-08-17T09:11:57.949Z,1017.22
2017-08-17T09:12:57.973Z,1017.17
2017-08-17T09:13:58.020Z,1017.17
2017-08-17T09:14:58.368Z,1017.18
2017-08-17T09:15:58.711Z,1017.07
2017-08-17T09:16:58.759Z,1017.11
2017-08-17T09:17:58.804Z,1017.14
2017-08-17T09:18:58.849Z,1017.17
2017-08-17T09:19:58.898Z,1017.22
2017-08-17T09:20:58.940Z,1017.2
2017-08-17T09:21:59.287Z,1017.17
2017-08-17T09:22:59.333Z,1017.16
2017-08-17T09:23:59.375Z,1017.14
2017-08-17T09:24:59.420Z,1017.2
2017-08-17T09:25:59.469Z,1017.15
2017-08-17T09:26:59.519Z,1017.1
2017-08-17T09:27:59.562Z,1017.17
2017-08-17T09:28:59.611Z,1017.11
2017-08-17T09:29:59.659Z,1017.05
2017-08-17T09:30:59.703Z,1017.04
2017-08-17T09:31:59.744Z,1017.15
2017-08-17T09:33:00.203Z,1017.11
2017-08-17T09:34:00.237Z,1017.11
2017-08-17T09:35:00.371Z,1017
2017-08-17T09:36:00.318Z,1017.06
2017-08-17T09:37:00.365Z,1017.06
2017-08-17T09:38:00.412Z,1017.01
2017-08-17T09:39:00.463Z,1017
2017-08-17T09:40:00.507Z,1017.07
2017-08-17T09:41:00.552Z,1016.91
2017-08-17T09:42:00.604Z,1016.91
2017-08-17T09:43:00.648Z,1016.94
2017-08-17T09:44:00.750Z,1017
2017-08-17T09:45:00.741Z,1017.02
2017-08-17T09:46:00.813Z,1017.12
2017-08-17T09:47:00.857Z,1017.06
2017-08-17T09:48:00.879Z,1017.03
2017-08-17T09:49:00.928Z,1016.99
2017-08-17T09:50:00.973Z,1016.96
2017-08-17T09:51:01.318Z,1017.05
2017-08-17T09:52:01.068Z,1017.04
2017-08-17T09:53:01.461Z,1017.08
2017-08-17T09:54:01.487Z,1017.08
2017-08-17T09:55:01.635Z,1017.12
2017-08-17T09:56:01.576Z,1017.09
2017-08-17T09:57:01.966Z,1017.09
2017-08-17T09:58:02.337Z,1017.07
2017-08-17T09:59:02.380Z,1017.03
2017-08-17T10:00:02.676Z,1017.02
2017-08-17T10:01:09.869Z,1017.03
2017-08-17T10:02:02.567Z,1016.96
2017-08-17T10:03:02.570Z,1016.9
2017-08-17T10:04:03.450Z,1016.91
2017-08-17T10:05:03.337Z,1016.81
2017-08-17T10:06:03.846Z,1016.93
2017-08-17T10:07:03.888Z,1016.95
2017-08-17T10:08:04.243Z,1016.96
2017-08-17T10:09:04.574Z,1017.02
2017-08-17T10:10:04.869Z,1017.05
2017-08-17T10:11:04.667Z,1017.04
2017-08-17T10:12:04.711Z,1017.01
2017-08-17T10:13:04.758Z,1017.03
2017-08-17T10:14:04.806Z,1016.99
2017-08-17T10:15:05.250Z,1016.99
2017-08-17T10:16:05.174Z,1016.97
2017-08-17T10:17:05.223Z,1017.02
2017-08-17T10:18:05.269Z,1016.98
2017-08-17T10:19:05.369Z,1016.98
2017-08-17T10:20:05.358Z,1017.1
2017-08-17T10:21:05.661Z,1017.14
2017-08-17T10:22:05.451Z,1017.25
2017-08-17T10:23:05.616Z,1017.2
2017-08-17T10:24:05.542Z,1017.14
2017-08-17T10:25:05.864Z,1017.18
2017-08-17T10:26:06.289Z,1017.19
2017-08-17T10:27:06.354Z,1017.4
2017-08-17T10:28:06.380Z,1017.4
2017-08-17T10:29:06.443Z,1017.41
2017-08-17T10:30:06.971Z,1017.49
2017-08-17T10:31:06.737Z,1017.49
2017-08-17T10:32:06.777Z,1017.61
2017-08-17T10:33:06.820Z,1017.66
2017-08-17T10:34:07.524Z,1017.82
2017-08-17T10:35:07.567Z,1017.87
2017-08-17T10:36:07.612Z,1018.04
2017-08-17T10:37:07.656Z,1017.98
2017-08-17T10:38:07.720Z,1018.04
2017-08-17T10:39:07.863Z,1018.11
2017-08-17T10:40:07.783Z,1018.29
2017-08-17T10:41:07.831Z,1018.24
2017-08-17T10:42:07.869Z,1018.44
2017-08-17T10:43:07.915Z,1018.72
2017-08-17T10:44:07.964Z,1018.33
2017-08-17T10:45:08.154Z,1018.25
2017-08-17T10:46:08.046Z,1018.34
2017-08-17T10:47:08.730Z,1018.32
2017-08-17T10:48:08.486Z,1018.16
2017-08-17T10:49:08.526Z,1018.36
2017-08-17T10:50:08.850Z,1018.43
2017-08-17T10:51:09.003Z,1017.89
2017-08-17T10:52:09.040Z,1018.36
2017-08-17T10:53:09.082Z,1018.36
2017-08-17T10:54:09.124Z,1018.86
2017-08-17T10:55:09.186Z,1018.88
2017-08-17T10:56:09.213Z,1018.89
2017-08-17T10:57:09.251Z,1018.8
2017-08-17T10:58:09.322Z,1018.32
2017-08-17T10:59:09.335Z,1017.01
2017-08-17T11:00:09.702Z,1015.99
2017-08-17T11:01:19.771Z,1015.69
2017-08-17T11:02:09.563Z,1015.66
2017-08-17T11:03:09.769Z,1015.64
2017-08-17T11:04:09.841Z,1015.61
2017-08-17T11:05:09.591Z,1015.62
2017-08-17T11:06:09.627Z,1015.6
2017-08-17T11:07:09.670Z,1015.59
2017-08-17T11:08:10.135Z,1015.59
2017-08-17T11:09:10.448Z,1015.6
2017-08-17T11:10:10.216Z,1015.52
2017-08-17T11:11:10.258Z,1015.52
2017-08-17T11:12:10.302Z,1015.54
2017-08-17T11:13:10.342Z,1015.48
2017-08-17T11:14:10.463Z,1015.59
2017-08-17T11:15:10.821Z,1015.45
2017-08-17T11:16:11.145Z,1015.46
2017-08-17T11:17:11.515Z,1015.4
2017-08-17T11:18:11.223Z,1015.39
2017-08-17T11:19:11.267Z,1015.45
2017-08-17T11:20:11.311Z,1015.31
2017-08-17T11:21:11.346Z,1015.31
2017-08-17T11:22:11.697Z,1015.3
2017-08-17T11:23:11.760Z,1015.25
2017-08-17T11:24:12.078Z,1015.19
2017-08-17T11:25:12.528Z,1015.16
2017-08-17T11:26:12.922Z,1015.18
2017-08-17T11:27:12.914Z,1015.22
2017-08-17T11:28:12.953Z,1015.17
2017-08-17T11:29:13.311Z,1015.23
2017-08-17T11:30:13.649Z,1015.24
2017-08-17T11:31:13.392Z,1015.21
2017-08-17T11:32:14.129Z,1015.19
2017-08-17T11:33:14.081Z,1015.15
2017-08-17T11:34:14.125Z,1015.18
2017-08-17T11:35:14.320Z,1015.17
2017-08-17T11:36:14.206Z,1015.18
2017-08-17T11:37:14.257Z,1015.17
2017-08-17T11:38:14.292Z,1015.16
2017-08-17T11:39:14.333Z,1015.14
2017-08-17T11:40:14.718Z,1015.13
2017-08-17T11:41:14.753Z,1015.19
2017-08-17T11:42:14.799Z,1015.19
2017-08-17T11:43:14.870Z,1015.07
2017-08-17T11:44:14.880Z,1015.14
2017-08-17T11:45:14.957Z,1015.14
2017-08-17T11:46:14.992Z,1015.19
2017-08-17T11:47:15.037Z,1015.15
2017-08-17T11:48:15.101Z,1015.15
2017-08-17T11:49:15.119Z,1015.15
2017-08-17T11:50:15.191Z,1015.13
2017-08-17T11:51:15.220Z,1015.06
2017-08-17T11:52:15.530Z,1015.04
2017-08-17T11:53:15.278Z,1015
2017-08-17T11:54:15.319Z,1014.97
2017-08-17T11:55:15.771Z,1015
2017-08-17T11:56:15.784Z,1014.96
2017-08-17T11:57:15.830Z,1014.99
2017-08-17T11:58:15.868Z,1015
2017-08-17T11:59:15.912Z,1015.04
2017-08-17T12:00:16.050Z,1014.99
2017-08-17T12:01:16.111Z,1014.98
2017-08-17T12:02:16.034Z,1014.97
2017-08-17T12:03:16.071Z,1014.94
2017-08-17T12:04:16.121Z,1014.96
2017-08-17T12:05:16.405Z,1015
2017-08-17T12:06:16.194Z,1015.01
2017-08-17T12:07:16.239Z,1014.92
2017-08-17T12:08:16.276Z,1014.97
2017-08-17T12:09:16.322Z,1015.03
2017-08-17T12:10:16.678Z,1014.99
2017-08-17T12:11:16.744Z,1014.96
2017-08-17T12:12:16.760Z,1014.98